createdAt,value
2019-04-21T00:02:14.955Z,102033.63
2019-04-21T00:04:56.881Z,102028.33
2019-04-21T00:07:37.737Z,102028.58
2019-04-21T00:10:12.157Z,102039.08
2019-04-21T00:12:40.661Z,102035.27
2019-04-21T00:15:06.355Z,102030.84
2019-04-21T00:17:32.066Z,102026.89
2019-04-21T00:20:16.522Z,102036.52
2019-04-21T00:22:52.580Z,102035.03
2019-04-21T00:25:27.852Z,102027.88
2019-04-21T00:28:11.438Z,102028.00
2019-04-21T00:30:44.215Z,102024.05
2019-04-21T00:33:06.844Z,102024.30
2019-04-21T00:35:39.543Z,102023.93
2019-04-21T00:38:25.086Z,102011.48
2019-04-21T00:41:00.386Z,102018.38
2019-04-21T00:43:25.253Z,102017.51
2019-04-21T00:45:51.815Z,102013.42
2019-04-21T00:48:34.537Z,102008.34
2019-04-21T00:53:58.330Z,102000.09
2019-04-21T00:56:27.460Z,101991.96
2019-04-21T00:58:59.830Z,101991.70
2019-04-21T01:01:24.885Z,101996.34
2019-04-21T01:04:02.254Z,101996.59
2019-04-21T01:06:35.164Z,101995.94
2019-04-21T01:09:03.676Z,101993.47
2019-04-21T01:11:44.769Z,101994.34
2019-04-21T01:14:15.043Z,101992.23
2019-04-21T01:16:45.810Z,101987.78
2019-04-21T01:19:16.751Z,101993.59
2019-04-21T01:21:27.119Z,101988.30
2019-04-21T01:24:07.733Z,101990.53
2019-04-21T01:26:41.464Z,101996.31
2019-04-21T01:29:20.929Z,101990.52
2019-04-21T01:32:08.586Z,101992.61
2019-04-21T01:34:33.036Z,101989.63
2019-04-21T01:36:58.431Z,101987.59
2019-04-21T01:39:42.721Z,101987.16
2019-04-21T01:42:08.863Z,101983.16
2019-04-21T01:44:49.903Z,101987.22
2019-04-21T01:47:13.085Z,101985.72
2019-04-21T01:49:41.686Z,101991.37
2019-04-21T01:52:34.531Z,101982.19
2019-04-21T01:55:12.807Z,101981.78
2019-04-21T01:57:50.328Z,101982.95
2019-04-21T02:00:13.402Z,101975.93
2019-04-21T02:03:01.740Z,101971.95
2019-04-21T02:05:37.559Z,101977.73
2019-04-21T02:08:03.638Z,101972.03
2019-04-21T02:10:49.026Z,101966.02
2019-04-21T02:13:10.263Z,101972.97
2019-04-21T02:15:54.507Z,101970.38
2019-04-21T02:18:16.975Z,101966.08
2019-04-21T02:20:39.877Z,101973.11
2019-04-21T02:23:34.625Z,101977.52
2019-04-21T02:26:02.089Z,101976.42
2019-04-21T02:28:38.456Z,101977.17
2019-04-21T02:31:14.207Z,101974.25
2019-04-21T02:39:02.405Z,101980.07
2019-04-21T02:41:12.864Z,101972.78
2019-04-21T02:43:58.338Z,101967.52
2019-04-21T02:46:38.544Z,101968.87
2019-04-21T02:49:13.419Z,101961.73
2019-04-21T02:51:38.713Z,101962.60
2019-04-21T02:56:34.451Z,101964.06
2019-04-21T03:02:19.027Z,101966.27
2019-04-21T03:07:31.896Z,101959.66
2019-04-21T03:09:51.176Z,101958.23
2019-04-21T03:12:32.022Z,101957.00
2019-04-21T03:15:15.969Z,101956.88
2019-04-21T03:17:46.497Z,101956.95
2019-04-21T03:20:08.746Z,101954.54
2019-04-21T03:22:49.077Z,101955.31
2019-04-21T03:25:31.167Z,101949.27
2019-04-21T03:33:42.954Z,101955.87
2019-04-21T03:38:12.958Z,101959.98
2019-04-21T03:40:26.209Z,101956.26
2019-04-21T03:43:04.601Z,101956.42
2019-04-21T03:48:13.645Z,101953.02
2019-04-21T03:50:39.619Z,101956.69
2019-04-21T03:53:22.671Z,101942.31
2019-04-21T03:58:41.916Z,101950.26
2019-04-21T04:01:09.234Z,101946.75
2019-04-21T04:16:50.166Z,101956.52
2019-04-21T04:19:09.081Z,101965.33
2019-04-21T04:24:19.646Z,101956.79
2019-04-21T04:26:45.607Z,101961.65
2019-04-21T04:29:19.849Z,101946.72
2019-04-21T04:31:43.238Z,101938.23
2019-04-21T04:34:27.383Z,101944.79
2019-04-21T04:52:31.310Z,101944.95
2019-04-21T04:54:54.495Z,101945.84
2019-04-21T05:00:14.354Z,101958.23
2019-04-21T05:05:23.857Z,101949.56
2019-04-21T05:12:38.822Z,101954.59
2019-04-21T05:15:12.757Z,101954.86
2019-04-21T05:17:43.255Z,101963.31
2019-04-21T05:20:24.963Z,101964.77
2019-04-21T05:22:47.391Z,101964.41
2019-04-21T05:25:16.991Z,101951.59
2019-04-21T05:27:43.450Z,101954.83
2019-04-21T05:30:33.857Z,101955.58
2019-04-21T05:33:05.382Z,101951.17
2019-04-21T05:35:50.318Z,101953.04
2019-04-21T05:38:33.329Z,101949.09
2019-04-21T05:40:55.235Z,101940.59
2019-04-21T05:43:39.054Z,101947.01
2019-04-21T05:46:13.972Z,101940.09
2019-04-21T05:48:54.298Z,101943.73
2019-04-21T05:51:28.732Z,101944.89
2019-04-21T05:54:10.987Z,101938.61
2019-04-21T05:56:37.995Z,101945.78
2019-04-21T05:59:07.759Z,101944.17
2019-04-21T06:01:47.040Z,101941.16
2019-04-21T06:04:34.693Z,101941.77
2019-04-21T06:06:47.659Z,101941.91
2019-04-21T06:09:21.314Z,101940.28
2019-04-21T06:11:50.797Z,101944.08
2019-04-21T06:14:20.308Z,101938.15
2019-04-21T06:16:55.676Z,101935.52
2019-04-21T06:19:39.345Z,101935.02
2019-04-21T06:21:58.965Z,101936.19
2019-04-21T06:24:39.210Z,101935.70
2019-04-21T06:29:38.338Z,101939.36
2019-04-21T06:35:00.254Z,101945.67
2019-04-21T06:40:08.980Z,101950.12
2019-04-21T06:42:23.933Z,101945.05
2019-04-21T06:45:00.996Z,101945.59
2019-04-21T06:47:37.980Z,101948.71
2019-04-21T06:50:01.659Z,101928.89
2019-04-21T06:52:46.664Z,101928.89
2019-04-21T06:55:12.083Z,101942.05
2019-04-21T06:57:38.932Z,101936.48
2019-04-21T07:00:14.971Z,101935.03
2019-04-21T07:03:11.050Z,101929.75
2019-04-21T07:05:22.791Z,101925.40
2019-04-21T07:08:11.295Z,101923.94
2019-04-21T07:10:26.529Z,101930.78
2019-04-21T07:12:51.608Z,101930.31
2019-04-21T07:15:34.113Z,101929.91
2019-04-21T07:18:09.024Z,101923.29
2019-04-21T07:20:30.968Z,101925.80
2019-04-21T07:23:09.407Z,101922.17
2019-04-21T07:25:43.463Z,101922.67
2019-04-21T07:28:09.979Z,101917.98
2019-04-21T07:30:49.600Z,101918.17
2019-04-21T07:33:41.187Z,101920.09
2019-04-21T07:35:44.490Z,101920.76
2019-04-21T07:38:24.474Z,101918.30
2019-04-21T07:40:47.862Z,101920.20
2019-04-21T07:43:20.454Z,101914.38
2019-04-21T07:45:52.456Z,101911.27
2019-04-21T07:48:36.126Z,101911.42
2019-04-21T07:51:22.894Z,101903.98
2019-04-21T07:53:55.336Z,101899.64
2019-04-21T07:56:09.478Z,101902.95
2019-04-21T07:58:59.115Z,101895.09
2019-04-21T08:04:03.816Z,101897.86
2019-04-21T08:06:38.739Z,101908.63
2019-04-21T08:09:06.224Z,101898.92
2019-04-21T08:11:32.756Z,101904.81
2019-04-21T08:14:14.714Z,101900.89
2019-04-21T08:16:49.824Z,101899.16
2019-04-21T08:19:13.075Z,101904.04
2019-04-21T08:21:49.648Z,101894.09
2019-04-21T08:24:19.778Z,101885.08
2019-04-21T08:26:55.816Z,101878.13
2019-04-21T08:29:39.415Z,101882.62
2019-04-21T08:32:06.840Z,101878.05
2019-04-21T08:34:30.056Z,101875.86
2019-04-21T08:36:56.737Z,101871.48
2019-04-21T08:39:42.065Z,101872.02
2019-04-21T08:42:06.552Z,101869.68
2019-04-21T08:44:43.086Z,101864.77
2019-04-21T08:47:16.779Z,101866.61
2019-04-21T08:49:41.411Z,101865.20
2019-04-21T08:52:34.723Z,101865.45
2019-04-21T08:54:55.812Z,101860.53
2019-04-21T08:57:52.606Z,101858.02
2019-04-21T09:00:19.814Z,101859.23
2019-04-21T09:03:02.363Z,101858.04
2019-04-21T09:05:29.700Z,101852.41
2019-04-21T09:08:06.663Z,101847.97
2019-04-21T09:10:35.581Z,101852.83
2019-04-21T09:13:04.971Z,101848.79
2019-04-21T09:15:39.127Z,101842.06
2019-04-21T09:18:08.451Z,101839.63
2019-04-21T09:20:47.352Z,101830.41
2019-04-21T09:23:13.309Z,101833.50
2019-04-21T09:25:53.024Z,101827.10
2019-04-21T09:28:22.665Z,101817.92
2019-04-21T09:30:43.397Z,101811.92
2019-04-21T09:33:09.267Z,101805.69
2019-04-21T09:35:47.471Z,101803.28
2019-04-21T09:38:22.718Z,101798.58
2019-04-21T09:40:49.026Z,101797.87
2019-04-21T09:43:25.651Z,101792.83
2019-04-21T09:45:49.653Z,101796.45
2019-04-21T09:48:22.528Z,101795.80
2019-04-21T09:50:52.802Z,101786.45
2019-04-21T09:53:31.222Z,101794.66
2019-04-21T09:55:59.750Z,101791.23
2019-04-21T09:58:35.820Z,101782.05
2019-04-21T10:01:13.567Z,101776.42
2019-04-21T10:03:42.822Z,101773.92
2019-04-21T10:06:06.682Z,101768.69
2019-04-21T10:08:38.536Z,101766.02
2019-04-21T10:11:09.838Z,101765.55
2019-04-21T10:13:40.494Z,101764.36
2019-04-21T10:16:13.220Z,101755.30
2019-04-21T10:18:44.119Z,101757.38
2019-04-21T10:21:15.470Z,101752.74
2019-04-21T10:23:47.962Z,101746.42
2019-04-21T10:26:24.341Z,101744.05
2019-04-21T10:28:58.704Z,101734.76
2019-04-21T10:31:27.364Z,101729.44
2019-04-21T10:33:58.938Z,101730.71
2019-04-21T10:36:30.954Z,101730.45
2019-04-21T10:39:04.050Z,101722.15
2019-04-21T10:41:35.346Z,101722.63
2019-04-21T10:44:07.205Z,101715.88
2019-04-21T10:46:38.172Z,101710.57
2019-04-21T10:49:08.803Z,101705.27
2019-04-21T10:51:39.488Z,101706.36
2019-04-21T10:54:11.436Z,101700.69
2019-04-21T10:56:44.412Z,101698.05
2019-04-21T10:59:14.731Z,101693.53
2019-04-21T11:01:45.352Z,101680.81
2019-04-21T11:04:24.517Z,101681.42
2019-04-21T11:06:50.747Z,101672.50
2019-04-21T11:09:22.037Z,101668.05
2019-04-21T11:11:53.556Z,101668.05
2019-04-21T11:14:27.189Z,101663.14
2019-04-21T11:16:58.673Z,101662.68
2019-04-21T11:19:30.680Z,101654.52
2019-04-21T11:22:02.878Z,101657.04
2019-04-21T11:24:33.755Z,101646.27
2019-04-21T11:27:04.681Z,101647.00
2019-04-21T11:29:35.296Z,101649.59
2019-04-21T11:32:07.103Z,101651.30
2019-04-21T11:34:38.936Z,101648.95
2019-04-21T11:37:10.768Z,101641.83
2019-04-21T11:39:50.157Z,101642.12
2019-04-21T11:42:19.511Z,101635.52
2019-04-21T11:44:51.495Z,101632.75
2019-04-21T11:47:28.037Z,101631.16
2019-04-21T11:49:59.067Z,101626.05
2019-04-21T11:52:29.710Z,101625.20
2019-04-21T11:55:00.574Z,101621.92
2019-04-21T11:57:36.694Z,101619.22
2019-04-21T12:00:06.054Z,101615.09
2019-04-21T12:02:37.388Z,101621.87
2019-04-21T12:05:09.790Z,101616.83
2019-04-21T12:07:40.933Z,101610.78
2019-04-21T12:10:13.441Z,101605.99
2019-04-21T12:12:45.420Z,101605.30
2019-04-21T12:15:16.737Z,101595.72
2019-04-21T12:17:48.084Z,101592.16
2019-04-21T12:20:18.970Z,101583.73
2019-04-21T12:22:49.564Z,101586.36
2019-04-21T12:25:22.937Z,101579.61
2019-04-21T12:27:54.122Z,101582.62
2019-04-21T12:30:25.037Z,101563.16
2019-04-21T12:33:00.148Z,101574.24
2019-04-21T12:35:30.768Z,101579.77
2019-04-21T12:38:02.652Z,101557.11
2019-04-21T12:40:34.710Z,101543.61
2019-04-21T12:43:06.424Z,101543.61
2019-04-21T12:45:37.854Z,101546.39
2019-04-21T12:48:10.328Z,101539.41
2019-04-21T12:50:41.670Z,101543.48
2019-04-21T12:53:14.171Z,101543.63
2019-04-21T12:55:46.326Z,101538.94
2019-04-21T12:58:17.344Z,101542.81
2019-04-21T13:00:49.493Z,101534.45
2019-04-21T13:03:23.049Z,101530.11
2019-04-21T13:05:53.771Z,101524.57
2019-04-21T13:08:25.034Z,101521.37
2019-04-21T13:10:56.147Z,101510.65
2019-04-21T13:13:28.054Z,101510.65
2019-04-21T13:15:58.827Z,101509.66
2019-04-21T13:18:29.452Z,101503.42
2019-04-21T13:21:02.162Z,101583.54
2019-04-21T13:23:32.330Z,101505.25
2019-04-21T13:26:06.526Z,101497.60
2019-04-21T13:28:37.730Z,101488.72
2019-04-21T13:31:09.352Z,101482.95
2019-04-21T13:33:39.973Z,101478.48
2019-04-21T13:36:11.771Z,101472.33
2019-04-21T13:39:13.691Z,101472.28
2019-04-21T13:41:32.693Z,101460.86
2019-04-21T13:43:53.020Z,101463.19
2019-04-21T13:46:24.949Z,101455.17
2019-04-21T13:48:56.705Z,101460.25
2019-04-21T13:51:27.274Z,101451.73
2019-04-21T13:53:57.869Z,101452.38
2019-04-21T13:56:28.923Z,101442.18
2019-04-21T13:59:02.329Z,101442.95
2019-04-21T14:01:33.964Z,101437.75
2019-04-21T14:04:07.313Z,101434.26
2019-04-21T14:06:38.472Z,101427.34
2019-04-21T14:09:11.499Z,101428.30
2019-04-21T14:11:43.498Z,101429.98
2019-04-21T14:14:14.476Z,101422.77
2019-04-21T14:16:45.763Z,101417.11
2019-04-21T14:19:17.270Z,101404.81
2019-04-21T14:21:49.870Z,101408.09
2019-04-21T14:24:20.201Z,101407.19
2019-04-21T14:26:52.055Z,101402.50
2019-04-21T14:29:23.858Z,101397.39
2019-04-21T14:31:55.903Z,101396.02
2019-04-21T14:34:28.122Z,101390.38
2019-04-21T14:36:59.022Z,101390.38
2019-04-21T14:39:30.374Z,101390.58
2019-04-21T14:42:02.282Z,101384.54
2019-04-21T14:44:33.267Z,101377.06
2019-04-21T14:47:09.254Z,101377.38
2019-04-21T14:49:47.311Z,101377.06
2019-04-21T14:52:21.111Z,101375.27
2019-04-21T14:54:56.338Z,101375.67
2019-04-21T14:57:27.399Z,101369.84
2019-04-21T14:59:57.970Z,101363.61
2019-04-21T15:02:29.911Z,101362.55
2019-04-21T15:05:02.117Z,101362.19
2019-04-21T15:07:33.095Z,101352.66
2019-04-21T15:10:14.279Z,101349.83
2019-04-21T15:12:39.342Z,101345.58
2019-04-21T15:15:11.770Z,101344.64
2019-04-21T15:17:44.028Z,101337.32
2019-04-21T15:20:16.318Z,101342.41
2019-04-21T15:22:48.306Z,101341.16
2019-04-21T15:25:20.415Z,101331.97
2019-04-21T15:27:52.813Z,101327.15
2019-04-21T15:30:24.767Z,101327.27
2019-04-21T15:32:55.382Z,101322.43
2019-04-21T15:35:26.933Z,101316.62
2019-04-21T15:37:58.066Z,101314.87
2019-04-21T15:40:39.887Z,101313.99
2019-04-21T15:43:02.269Z,101309.94
2019-04-21T15:45:33.157Z,101307.98
2019-04-21T15:48:04.342Z,101311.02
2019-04-21T15:50:35.682Z,101308.47
2019-04-21T15:53:08.008Z,101297.41
2019-04-21T15:55:57.033Z,101303.23
2019-04-21T15:58:30.456Z,101293.08
2019-04-21T16:01:06.930Z,101293.98
2019-04-21T16:03:38.562Z,101288.80
2019-04-21T16:06:09.673Z,101283.55
2019-04-21T16:08:40.372Z,101284.03
2019-04-21T16:11:11.449Z,101276.85
2019-04-21T16:13:43.522Z,101278.03
2019-04-21T16:16:14.705Z,101274.50
2019-04-21T16:18:46.009Z,101274.80
2019-04-21T16:21:18.038Z,101262.91
2019-04-21T16:23:48.766Z,101262.84
2019-04-21T16:26:20.357Z,101263.36
2019-04-21T16:28:51.221Z,101257.41
2019-04-21T16:31:22.554Z,101257.38
2019-04-21T16:33:54.629Z,101251.89
2019-04-21T16:36:25.661Z,101251.63
2019-04-21T16:38:57.503Z,101245.47
2019-04-21T16:41:29.309Z,101247.77
2019-04-21T16:44:00.921Z,101248.88
2019-04-21T16:46:31.699Z,101242.14
2019-04-21T16:49:02.343Z,101243.84
2019-04-21T16:51:33.907Z,101240.53
2019-04-21T16:54:06.228Z,101238.44
2019-04-21T16:56:39.605Z,101232.41
2019-04-21T17:01:54.522Z,101232.98
2019-04-21T17:04:26.463Z,101230.05
2019-04-21T17:06:58.791Z,101227.94
2019-04-21T17:09:30.640Z,101221.84
2019-04-21T17:12:05.575Z,101216.94
2019-04-21T17:14:51.297Z,101211.75
2019-04-21T17:17:35.237Z,101212.98
2019-04-21T17:19:45.512Z,101213.90
2019-04-21T17:22:13.753Z,101208.45
2019-04-21T17:24:46.479Z,101211.31
2019-04-21T17:27:17.447Z,101208.00
2019-04-21T17:29:50.654Z,101214.91
2019-04-21T17:32:27.292Z,101208.83
2019-04-21T17:34:56.147Z,101211.81
2019-04-21T17:37:28.402Z,101217.73
2019-04-21T17:40:01.884Z,101215.27
2019-04-21T17:42:39.793Z,101210.02
2019-04-21T17:45:05.824Z,101212.38
2019-04-21T17:47:45.823Z,101217.46
2019-04-21T17:50:23.416Z,101214.51
2019-04-21T17:53:04.964Z,101219.28
2019-04-21T17:55:36.927Z,101215.98
2019-04-21T17:58:21.732Z,101214.19
2019-04-21T18:01:10.758Z,101213.22
2019-04-21T18:03:56.919Z,101224.02
2019-04-21T18:06:01.498Z,101216.17
2019-04-21T18:08:36.752Z,101212.97
2019-04-21T18:11:01.179Z,101214.09
2019-04-21T18:13:25.009Z,101219.48
2019-04-21T18:16:08.143Z,101224.82
2019-04-21T18:18:26.867Z,101228.45
2019-04-21T18:21:08.946Z,101222.19
2019-04-21T18:24:00.757Z,101221.02
2019-04-21T18:26:35.947Z,101228.03
2019-04-21T18:28:59.115Z,101224.84
2019-04-21T18:31:36.451Z,101229.38
2019-04-21T18:34:12.517Z,101226.15
2019-04-21T18:36:47.801Z,101227.32
2019-04-21T18:39:38.178Z,101232.45
2019-04-21T18:42:19.914Z,101230.91
2019-04-21T18:45:11.053Z,101235.69
2019-04-21T18:47:31.800Z,101237.92
2019-04-21T18:49:56.204Z,101242.36
2019-04-21T18:52:45.205Z,101244.59
2019-04-21T18:55:16.248Z,101244.78
2019-04-21T18:57:44.008Z,101252.31
2019-04-21T19:00:17.853Z,101248.55
2019-04-21T19:02:47.710Z,101253.34
2019-04-21T19:05:19.148Z,101258.45
2019-04-21T19:08:05.708Z,101256.09
2019-04-21T19:10:39.708Z,101258.45
2019-04-21T19:15:40.039Z,101251.94
2019-04-21T19:18:43.663Z,101253.28
2019-04-21T19:20:51.812Z,101251.21
2019-04-21T19:23:33.851Z,101249.14
2019-04-21T19:25:55.602Z,101250.13
2019-04-21T19:28:24.608Z,101252.45
2019-04-21T19:33:29.745Z,101256.31
2019-04-21T19:35:49.791Z,101260.42
2019-04-21T19:38:30.655Z,101258.37
2019-04-21T19:41:14.426Z,101259.54
2019-04-21T19:43:47.104Z,101268.90
2019-04-21T19:46:13.995Z,101268.37
2019-04-21T19:48:56.643Z,101277.56
2019-04-21T19:51:20.899Z,101274.66
2019-04-21T19:53:49.063Z,101271.87
2019-04-21T19:56:08.442Z,101275.75
2019-04-21T19:58:43.550Z,101276.17
2019-04-21T20:01:11.949Z,101278.50
2019-04-21T20:03:49.871Z,101282.55
2019-04-21T20:06:34.527Z,101283.25
2019-04-21T20:09:09.604Z,101283.38
2019-04-21T20:11:38.766Z,101287.84
2019-04-21T20:14:37.668Z,101288.47
2019-04-21T20:16:44.136Z,101286.25
2019-04-21T20:19:02.358Z,101289.80
2019-04-21T20:21:31.029Z,101295.98
2019-04-21T20:24:09.129Z,101287.24
2019-04-21T20:26:41.249Z,101294.59
2019-04-21T20:29:20.086Z,101290.27
2019-04-21T20:31:54.359Z,101285.13
2019-04-21T20:34:34.984Z,101285.78
2019-04-21T20:37:07.706Z,101286.75
2019-04-21T20:39:25.411Z,101284.37
2019-04-21T20:42:11.354Z,101285.34
2019-04-21T20:44:40.230Z,101285.49
2019-04-21T20:47:13.143Z,101285.69
2019-04-21T20:49:38.558Z,101279.75
2019-04-21T20:52:23.985Z,101283.05
2019-04-21T20:54:49.358Z,101279.95
2019-04-21T20:57:21.920Z,101279.59
2019-04-21T21:00:02.358Z,101282.25
2019-04-21T21:02:30.032Z,101278.84
2019-04-21T21:04:54.757Z,101273.23
2019-04-21T21:07:45.901Z,101272.70
2019-04-21T21:10:12.552Z,101271.59
2019-04-21T21:12:50.848Z,101274.22
2019-04-21T21:15:07.897Z,101279.29
2019-04-21T21:17:52.366Z,101279.13
2019-04-21T21:20:29.504Z,101278.88
2019-04-21T21:22:52.056Z,101273.59
2019-04-21T21:25:33.760Z,101272.05
2019-04-21T21:27:53.113Z,101278.31
2019-04-21T21:30:29.028Z,101270.30
2019-04-21T21:33:00.829Z,101276.98
2019-04-21T21:35:31.035Z,101272.77
2019-04-21T21:38:08.134Z,101277.68
2019-04-21T21:40:36.027Z,101285.19
2019-04-21T21:42:55.285Z,101277.11
2019-04-21T21:45:30.376Z,101289.83
2019-04-21T21:48:12.640Z,101282.99
2019-04-21T21:50:43.138Z,101285.56
2019-04-21T21:53:10.510Z,101283.34
2019-04-21T21:55:35.862Z,101286.52
2019-04-21T21:58:08.517Z,101292.47
2019-04-21T22:00:43.357Z,101289.33
2019-04-21T22:03:23.219Z,101289.37
2019-04-21T22:05:53.435Z,101294.42
2019-04-21T22:08:18.905Z,101291.88
2019-04-21T22:10:49.610Z,101294.59
2019-04-21T22:13:22.175Z,101292.08
2019-04-21T22:15:59.457Z,101289.11
2019-04-21T22:18:42.091Z,101290.10
2019-04-21T22:21:11.415Z,101283.05
2019-04-21T22:23:42.670Z,101289.66
2019-04-21T22:26:03.067Z,101287.09
2019-04-21T22:28:33.899Z,101285.43
2019-04-21T22:31:05.566Z,101285.67
2019-04-21T22:33:47.859Z,101287.49
2019-04-21T22:36:26.697Z,101288.14
2019-04-21T22:39:04.941Z,101291.06
2019-04-21T22:41:28.078Z,101289.53
2019-04-21T22:43:52.268Z,101296.97
2019-04-21T22:46:22.325Z,101291.95
2019-04-21T22:48:57.046Z,101288.45
2019-04-21T22:51:32.399Z,101290.17
2019-04-21T22:53:59.582Z,101291.83
2019-04-21T22:56:33.539Z,101291.48
2019-04-21T22:59:08.517Z,101298.55
2019-04-21T23:01:41.379Z,101302.56
2019-04-21T23:04:08.954Z,101297.83
2019-04-21T23:06:41.284Z,101291.47
2019-04-21T23:09:12.980Z,101291.92
2019-04-21T23:11:50.295Z,101289.85
2019-04-21T23:14:17.544Z,101293.39
2019-04-21T23:16:53.952Z,101289.00
2019-04-21T23:19:35.698Z,101297.89
2019-04-21T23:22:09.530Z,101288.83
2019-04-21T23:24:45.511Z,101293.98
2019-04-21T23:27:11.743Z,101291.48
2019-04-21T23:32:16.894Z,101299.42
2019-04-21T23:34:37.218Z,101302.98
2019-04-21T23:37:14.164Z,101297.12
2019-04-21T23:39:39.713Z,101295.14
2019-04-21T23:42:11.212Z,101291.13
2019-04-21T23:44:48.999Z,101295.42
2019-04-21T23:47:31.699Z,101300.55
2019-04-21T23:49:56.608Z,101294.84
2019-04-21T23:52:19.847Z,101298.53
2019-04-21T23:54:51.676Z,101302.39
2019-04-21T23:57:30.453Z,101291.83
2019-04-21T23:59:57.139Z,101289.11
